createdAt,value
2019-03-27T00:00:24.373Z,26.8
2019-03-27T00:01:13.999Z,26.8
2019-03-27T00:02:04.533Z,26.8
2019-03-27T00:02:54.911Z,26.7
2019-03-27T00:03:44.911Z,26.7
2019-03-27T00:04:35.177Z,26.6
2019-03-27T00:05:24.291Z,26.6
2019-03-27T00:06:14.303Z,26.6
2019-03-27T00:07:05.403Z,26.6
2019-03-27T00:07:54.073Z,26.4
2019-03-27T00:08:45.048Z,25.7
2019-03-27T00:09:34.606Z,25.6
2019-03-27T00:10:25.660Z,25.6
2019-03-27T00:11:19.051Z,25.2
2019-03-27T00:12:05.829Z,25.1
2019-03-27T00:12:56.210Z,25
2019-03-27T00:13:46.573Z,25.1
2019-03-27T00:14:34.948Z,25.3
2019-03-27T00:15:25.990Z,25.6
2019-03-27T00:16:15.497Z,25.9
2019-03-27T00:17:05.878Z,26.1
2019-03-27T00:17:56.245Z,26.4
2019-03-27T00:18:46.769Z,26.6
2019-03-27T00:19:36.151Z,26.8
2019-03-27T00:20:25.695Z,26.9
2019-03-27T00:21:16.027Z,27.1
2019-03-27T00:22:06.838Z,27.3
2019-03-27T00:22:56.373Z,27.4
2019-03-27T00:23:46.895Z,27.5
2019-03-27T00:24:37.037Z,27.6
2019-03-27T00:25:26.287Z,27.6
2019-03-27T00:26:16.237Z,27.7
2019-03-27T00:27:07.415Z,27.8
2019-03-27T00:27:56.705Z,27.8
2019-03-27T00:28:47.072Z,27.8
2019-03-27T00:29:37.185Z,27.7
2019-03-27T00:30:27.412Z,27.7
2019-03-27T00:31:20.384Z,27.7
2019-03-27T00:32:07.049Z,27.7
2019-03-27T00:32:57.808Z,27.6
2019-03-27T00:33:47.582Z,27.6
2019-03-27T00:34:37.377Z,27.6
2019-03-27T00:35:26.909Z,27.5
2019-03-27T00:36:16.757Z,27.4
2019-03-27T00:37:06.065Z,27.4
2019-03-27T00:37:57.409Z,27.4
2019-03-27T00:38:47.962Z,27.4
2019-03-27T00:39:36.936Z,27.3
2019-03-27T00:40:27.237Z,27.3
2019-03-27T00:41:18.257Z,27.3
2019-03-27T00:42:07.159Z,27.3
2019-03-27T00:42:58.033Z,27.2
2019-03-27T00:43:46.754Z,27.2
2019-03-27T00:44:37.838Z,27.1
2019-03-27T00:45:37.644Z,27.1
2019-03-27T00:46:17.394Z,27.1
2019-03-27T00:47:08.004Z,27.1
2019-03-27T00:47:58.951Z,27
2019-03-27T00:48:48.427Z,27
2019-03-27T00:49:37.979Z,26.9
2019-03-27T00:50:28.251Z,26.9
2019-03-27T00:51:19.279Z,26.9
2019-03-27T00:52:09.278Z,26.8
2019-03-27T00:52:58.333Z,26.8
2019-03-27T00:53:48.784Z,26.8
2019-03-27T00:54:37.993Z,26.8
2019-03-27T00:55:28.498Z,26.7
2019-03-27T00:56:18.768Z,26.7
2019-03-27T00:57:09.207Z,26.6
2019-03-27T00:57:59.153Z,26.6
2019-03-27T00:58:48.934Z,26.4
2019-03-27T00:59:39.108Z,25.8
2019-03-27T01:00:29.404Z,25.8
2019-03-27T01:01:19.357Z,25.6
2019-03-27T01:02:09.160Z,25.3
2019-03-27T01:02:59.458Z,25.1
2019-03-27T01:03:49.009Z,25.1
2019-03-27T01:04:39.080Z,25.1
2019-03-27T01:05:29.473Z,25.3
2019-03-27T01:06:19.733Z,25.7
2019-03-27T01:07:10.119Z,26
2019-03-27T01:07:59.001Z,26.3
2019-03-27T01:08:50.225Z,26.4
2019-03-27T01:09:39.682Z,26.6
2019-03-27T01:10:30.330Z,26.8
2019-03-27T01:11:20.614Z,27
2019-03-27T01:12:09.585Z,27.1
2019-03-27T01:12:59.387Z,27.3
2019-03-27T01:13:50.282Z,27.4
2019-03-27T01:14:40.338Z,27.6
2019-03-27T01:15:44.784Z,27.7
2019-03-27T01:16:20.031Z,27.7
2019-03-27T01:17:08.392Z,27.8
2019-03-27T01:20:30.489Z,27.8
2019-03-27T01:21:20.791Z,27.8
2019-03-27T01:22:10.579Z,27.7
2019-03-27T01:23:00.892Z,27.7
2019-03-27T01:23:51.051Z,27.6
2019-03-27T01:24:40.731Z,27.6
2019-03-27T01:25:31.094Z,27.6
2019-03-27T01:26:21.404Z,27.6
2019-03-27T01:27:11.061Z,27.5
2019-03-27T01:28:00.736Z,27.4
2019-03-27T01:28:51.324Z,27.4
2019-03-27T01:29:41.704Z,27.4
2019-03-27T01:30:31.478Z,27.4
2019-03-27T01:31:21.516Z,27.3
2019-03-27T01:32:11.600Z,27.3
2019-03-27T01:33:02.176Z,27.3
2019-03-27T01:33:51.096Z,27.2
2019-03-27T01:34:42.121Z,27.2
2019-03-27T01:35:32.443Z,27.1
2019-03-27T01:36:21.650Z,27.1
2019-03-27T01:37:12.171Z,27.1
2019-03-27T01:38:01.420Z,27.1
2019-03-27T01:38:50.634Z,27
2019-03-27T01:39:42.145Z,27
2019-03-27T01:40:32.070Z,26.9
2019-03-27T01:41:22.096Z,26.9
2019-03-27T01:42:12.548Z,26.9
2019-03-27T01:43:02.598Z,26.9
2019-03-27T01:43:51.695Z,26.8
2019-03-27T01:44:42.714Z,26.8
2019-03-27T01:45:32.003Z,26.8
2019-03-27T01:46:22.125Z,26.7
2019-03-27T01:47:12.412Z,26.7
2019-03-27T01:48:02.494Z,26.6
2019-03-27T01:48:52.441Z,26.6
2019-03-27T01:49:42.825Z,26.3
2019-03-27T01:50:32.058Z,25.7
2019-03-27T01:51:22.987Z,25.8
2019-03-27T01:52:16.688Z,25.6
2019-03-27T01:53:02.541Z,25.3
2019-03-27T01:53:53.402Z,25.2
2019-03-27T01:54:43.742Z,25.2
2019-03-27T01:55:32.994Z,25.3
2019-03-27T01:56:23.108Z,25.5
2019-03-27T01:57:12.857Z,25.8
2019-03-27T01:58:03.127Z,26.1
2019-03-27T01:58:53.477Z,26.3
2019-03-27T01:59:43.878Z,26.6
2019-03-27T02:00:33.318Z,26.8
2019-03-27T02:01:23.129Z,26.9
2019-03-27T02:02:14.062Z,27.1
2019-03-27T02:03:03.576Z,27.2
2019-03-27T02:03:54.164Z,27.4
2019-03-27T02:04:44.225Z,27.5
2019-03-27T02:05:33.971Z,27.6
2019-03-27T02:06:23.994Z,27.7
2019-03-27T02:07:14.396Z,27.8
2019-03-27T02:11:24.291Z,27.8
2019-03-27T02:12:14.441Z,27.8
2019-03-27T02:13:04.511Z,27.7
2019-03-27T02:13:54.931Z,27.7
2019-03-27T02:14:44.663Z,27.6
2019-03-27T02:15:34.161Z,27.6
2019-03-27T02:16:23.894Z,27.6
2019-03-27T02:17:15.106Z,27.5
2019-03-27T02:18:04.861Z,27.5
2019-03-27T02:18:54.771Z,27.4
2019-03-27T02:19:44.751Z,27.4
2019-03-27T02:20:34.749Z,27.4
2019-03-27T02:21:24.551Z,27.3
2019-03-27T02:22:15.218Z,27.3
2019-03-27T02:23:05.238Z,27.3
2019-03-27T02:23:55.858Z,27.2
2019-03-27T02:24:45.628Z,27.2
2019-03-27T02:25:35.129Z,27.1
2019-03-27T02:26:25.638Z,27.1
2019-03-27T02:27:15.913Z,27.1
2019-03-27T02:28:03.953Z,27.1
2019-03-27T02:28:55.168Z,27
2019-03-27T02:29:46.013Z,27
2019-03-27T02:30:36.127Z,26.9
2019-03-27T02:31:25.702Z,26.9
2019-03-27T02:32:20.237Z,26.9
2019-03-27T02:33:06.814Z,26.9
2019-03-27T02:33:56.046Z,26.8
2019-03-27T02:34:44.895Z,26.8
2019-03-27T02:35:35.952Z,26.8
2019-03-27T02:36:25.841Z,26.7
2019-03-27T02:37:16.441Z,26.7
2019-03-27T02:38:06.230Z,26.6
2019-03-27T02:38:56.431Z,26.6
2019-03-27T02:39:46.670Z,26.3
2019-03-27T02:40:37.293Z,25.7
2019-03-27T02:41:26.273Z,25.9
2019-03-27T02:42:15.573Z,25.7
2019-03-27T02:43:06.616Z,25.4
2019-03-27T02:43:56.962Z,25.3
2019-03-27T02:44:47.050Z,25.2
2019-03-27T02:45:37.256Z,25.3
2019-03-27T02:46:35.922Z,25.5
2019-03-27T02:47:17.238Z,25.9
2019-03-27T02:48:07.732Z,26.1
2019-03-27T02:48:56.487Z,26.4
2019-03-27T02:49:47.853Z,26.6
2019-03-27T02:50:37.534Z,26.8
2019-03-27T02:51:27.434Z,26.9
2019-03-27T02:52:17.573Z,27.1
2019-03-27T02:53:08.235Z,27.3
2019-03-27T02:53:57.749Z,27.4
2019-03-27T02:54:47.124Z,27.5
2019-03-27T02:55:37.984Z,27.6
2019-03-27T02:56:28.452Z,27.7
2019-03-27T02:57:17.556Z,27.8
2019-03-27T02:58:57.954Z,27.9
2019-03-27T02:59:47.984Z,27.9
2019-03-27T03:03:07.204Z,27.8
2019-03-27T03:03:58.643Z,27.8
2019-03-27T03:07:28.796Z,27.6
2019-03-27T03:08:18.948Z,27.6
2019-03-27T03:09:09.038Z,27.5
2019-03-27T03:10:00.327Z,27.5
2019-03-27T03:10:53.720Z,27.4
2019-03-27T03:11:39.472Z,27.4
2019-03-27T03:12:29.866Z,27.4
2019-03-27T03:13:20.094Z,27.3
2019-03-27T03:14:09.596Z,27.3
2019-03-27T03:14:59.701Z,27.3
2019-03-27T03:15:49.720Z,27.3
2019-03-27T03:16:53.938Z,27.2
2019-03-27T03:17:30.254Z,27.1
2019-03-27T03:18:20.461Z,27.1
2019-03-27T03:19:10.039Z,27.1
2019-03-27T03:19:59.657Z,27.1
2019-03-27T03:20:50.037Z,27
2019-03-27T03:21:39.497Z,27
2019-03-27T03:22:29.737Z,27
2019-03-27T03:23:20.504Z,26.9
2019-03-27T03:24:10.278Z,26.9
2019-03-27T03:24:59.063Z,26.9
2019-03-27T03:25:49.921Z,26.8
2019-03-27T03:26:40.968Z,26.8
2019-03-27T03:27:30.881Z,26.8
2019-03-27T03:28:20.497Z,26.7
2019-03-27T03:29:10.428Z,26.7
2019-03-27T03:30:01.717Z,26.2
2019-03-27T03:30:51.399Z,25.8
2019-03-27T03:31:41.087Z,25.9
2019-03-27T03:32:31.495Z,25.7
2019-03-27T03:33:21.551Z,25.4
2019-03-27T03:34:12.001Z,25.3
2019-03-27T03:35:02.046Z,25.3
2019-03-27T03:35:51.442Z,25.3
2019-03-27T03:36:41.030Z,25.6
2019-03-27T03:37:31.558Z,25.9
2019-03-27T03:38:21.449Z,26.2
2019-03-27T03:39:11.647Z,26.3
2019-03-27T03:40:01.470Z,26.3
2019-03-27T03:40:51.779Z,26.2
2019-03-27T03:41:41.898Z,26.6
2019-03-27T03:42:31.397Z,26.4
2019-03-27T03:43:21.676Z,26.4
2019-03-27T03:44:11.487Z,26.3
2019-03-27T03:45:02.464Z,26.2
2019-03-27T03:45:51.554Z,26.1
2019-03-27T03:46:40.844Z,26.3
2019-03-27T03:47:32.521Z,26.6
2019-03-27T03:48:21.577Z,26.8
2019-03-27T03:49:11.810Z,26.9
2019-03-27T03:50:02.725Z,27.1
2019-03-27T03:51:07.422Z,27.3
2019-03-27T03:51:42.254Z,27.4
2019-03-27T03:52:32.093Z,27.5
2019-03-27T03:53:22.658Z,27.6
2019-03-27T03:54:12.557Z,27.8
2019-03-27T03:55:53.115Z,27.9
2019-03-27T03:56:42.373Z,27.9
2019-03-27T03:57:33.040Z,27.9
2019-03-27T03:58:23.274Z,27.9
2019-03-27T03:59:12.168Z,27.9
2019-03-27T04:01:43.239Z,27.8
2019-03-27T04:02:32.205Z,27.7
2019-03-27T04:03:23.021Z,27.5
2019-03-27T04:04:13.534Z,27.1
2019-03-27T04:05:03.597Z,26.9
2019-03-27T04:05:52.901Z,26.8
2019-03-27T04:06:43.698Z,26.6
2019-03-27T04:07:33.223Z,26.6
2019-03-27T04:08:24.112Z,26.6
2019-03-27T04:09:13.630Z,26.5
2019-03-27T04:10:04.544Z,26.5
2019-03-27T04:10:54.267Z,26.5
2019-03-27T04:11:43.536Z,26.4
2019-03-27T04:12:32.926Z,26.4
2019-03-27T04:13:24.022Z,26.3
2019-03-27T04:14:13.948Z,25.9
2019-03-27T04:15:03.847Z,25.8
2019-03-27T04:15:54.335Z,25.6
2019-03-27T04:16:43.900Z,25.5
2019-03-27T04:17:34.282Z,25.4
2019-03-27T04:18:24.527Z,25.4
2019-03-27T04:19:12.895Z,25.4
2019-03-27T04:20:04.404Z,25.3
2019-03-27T04:20:54.766Z,25.3
2019-03-27T04:21:44.593Z,25.3
2019-03-27T04:22:34.562Z,25.3
2019-03-27T04:23:24.350Z,25.2
2019-03-27T04:24:13.776Z,25.1
2019-03-27T04:25:04.682Z,25.3
2019-03-27T04:26:21.165Z,25.7
2019-03-27T04:26:44.351Z,25.4
2019-03-27T04:27:35.185Z,25.4
2019-03-27T04:28:24.750Z,25.4
2019-03-27T04:29:15.344Z,25.4
2019-03-27T04:30:05.049Z,25.4
2019-03-27T04:30:55.521Z,25.8
2019-03-27T04:31:45.451Z,26.1
2019-03-27T04:32:35.349Z,26.3
2019-03-27T04:33:25.294Z,26.6
2019-03-27T04:34:14.848Z,26.8
2019-03-27T04:35:04.965Z,26.9
2019-03-27T04:35:56.086Z,27.1
2019-03-27T04:36:45.556Z,27.2
2019-03-27T04:37:35.849Z,27.3
2019-03-27T04:38:25.920Z,27.4
2019-03-27T04:39:14.653Z,27.6
2019-03-27T04:40:05.428Z,27.7
2019-03-27T04:40:55.543Z,27.8
2019-03-27T04:42:35.433Z,27.9
2019-03-27T04:43:26.664Z,27.9
2019-03-27T04:44:16.660Z,27.9
2019-03-27T04:45:06.391Z,27.9
2019-03-27T04:47:43.263Z,27.8
2019-03-27T04:48:26.088Z,27.8
2019-03-27T04:49:18.967Z,27.5
2019-03-27T04:50:06.750Z,27.1
2019-03-27T04:50:56.660Z,26.9
2019-03-27T04:51:46.561Z,26.8
2019-03-27T04:52:36.267Z,26.7
2019-03-27T04:53:26.622Z,26.7
2019-03-27T04:54:16.386Z,26.6
2019-03-27T04:55:07.095Z,26.6
2019-03-27T04:55:56.768Z,26.6
2019-03-27T04:56:47.422Z,26.6
2019-03-27T04:57:37.223Z,26.5
2019-03-27T04:58:27.648Z,26.5
2019-03-27T04:59:16.852Z,26.3
2019-03-27T05:00:07.098Z,26
2019-03-27T05:00:57.305Z,25.8
2019-03-27T05:01:46.277Z,25.6
2019-03-27T05:02:37.141Z,25.5
2019-03-27T05:03:26.823Z,25.5
2019-03-27T05:04:18.014Z,25.4
2019-03-27T05:05:07.736Z,25.4
2019-03-27T05:05:56.820Z,25.4
2019-03-27T05:06:47.671Z,25.3
2019-03-27T05:07:37.649Z,25.3
2019-03-27T05:08:26.672Z,25.3
2019-03-27T05:09:18.473Z,25.3
2019-03-27T05:10:08.198Z,25.1
2019-03-27T05:10:57.223Z,25
2019-03-27T05:11:47.685Z,24.9
2019-03-27T05:12:41.754Z,24.9
2019-03-27T05:13:27.513Z,24.8
2019-03-27T05:14:18.099Z,24.8
2019-03-27T05:15:07.883Z,24.7
2019-03-27T05:15:58.589Z,24.7
2019-03-27T05:16:47.479Z,24.6
2019-03-27T05:17:52.358Z,24.6
2019-03-27T05:18:28.122Z,24.6
2019-03-27T05:19:17.980Z,24.6
2019-03-27T05:20:07.983Z,24.9
2019-03-27T05:20:56.977Z,25.4
2019-03-27T05:21:48.641Z,25.5
2019-03-27T05:22:38.006Z,25.3
2019-03-27T05:23:29.146Z,25.3
2019-03-27T05:24:19.095Z,25.2
2019-03-27T05:25:08.993Z,25.3
2019-03-27T05:25:58.968Z,25.5
2019-03-27T05:26:48.718Z,25.8
2019-03-27T05:27:42.746Z,26.1
2019-03-27T05:28:29.408Z,26.4
2019-03-27T05:29:19.201Z,26.6
2019-03-27T05:30:08.658Z,26.8
2019-03-27T05:30:59.916Z,26.9
2019-03-27T05:31:48.846Z,27.1
2019-03-27T05:32:39.707Z,27.3
2019-03-27T05:33:33.659Z,27.4
2019-03-27T05:34:19.832Z,27.5
2019-03-27T05:35:09.535Z,27.6
2019-03-27T05:35:59.768Z,27.7
2019-03-27T05:36:49.760Z,27.8
2019-03-27T05:41:50.100Z,27.8
2019-03-27T05:42:40.512Z,27.8
2019-03-27T05:43:30.829Z,27.7
2019-03-27T05:44:20.365Z,27.7
2019-03-27T05:45:09.974Z,27.6
2019-03-27T05:45:59.579Z,27.6
2019-03-27T05:46:50.585Z,27.6
2019-03-27T05:47:40.022Z,27.5
2019-03-27T05:48:30.952Z,27.5
2019-03-27T05:49:20.951Z,27.4
2019-03-27T05:50:10.989Z,27.4
2019-03-27T05:51:00.789Z,27.4
2019-03-27T05:51:50.424Z,27.3
2019-03-27T05:52:40.904Z,27.3
2019-03-27T05:53:30.939Z,27.3
2019-03-27T05:54:20.444Z,27.2
2019-03-27T05:55:10.261Z,27.1
2019-03-27T05:56:00.649Z,27.1
2019-03-27T05:56:51.549Z,27.1
2019-03-27T05:57:41.789Z,27
2019-03-27T05:58:31.946Z,26.9
2019-03-27T05:59:21.948Z,26.9
2019-03-27T06:00:11.583Z,26.9
2019-03-27T06:01:00.964Z,26.9
2019-03-27T06:01:51.620Z,26.8
2019-03-27T06:02:41.076Z,26.8
2019-03-27T06:05:28.836Z,26.6
2019-03-27T06:06:19.196Z,26.6
2019-03-27T06:07:08.963Z,26.6
2019-03-27T06:07:59.118Z,26.5
2019-03-27T06:08:48.279Z,26.5
2019-03-27T06:09:39.248Z,26.4
2019-03-27T06:10:28.965Z,26.4
2019-03-27T06:11:18.780Z,26.3
2019-03-27T06:12:09.093Z,26.3
2019-03-27T06:13:00.015Z,26.3
2019-03-27T06:13:49.551Z,26.3
2019-03-27T06:14:38.995Z,26.2
2019-03-27T06:15:28.995Z,26.1
2019-03-27T06:16:49.314Z,26.1
2019-03-27T06:17:09.260Z,26.1
2019-03-27T06:18:14.639Z,26
2019-03-27T06:18:49.290Z,25.9
2019-03-27T06:19:40.152Z,25.9
2019-03-27T06:20:29.972Z,25.7
2019-03-27T06:21:19.708Z,25.3
2019-03-27T06:22:09.776Z,25.6
2019-03-27T06:22:59.110Z,25.8
2019-03-27T06:23:50.815Z,25.3
2019-03-27T06:24:39.945Z,25.2
2019-03-27T06:25:30.515Z,25.1
2019-03-27T06:26:18.642Z,25.1
2019-03-27T06:27:09.133Z,25.3
2019-03-27T06:27:59.915Z,25.6
2019-03-27T06:28:49.764Z,25.9
2019-03-27T06:29:40.577Z,26.2
2019-03-27T06:30:31.037Z,26.4
2019-03-27T06:31:20.009Z,26.6
2019-03-27T06:32:10.290Z,26.6
2019-03-27T06:33:00.797Z,26.7
2019-03-27T06:33:50.828Z,26.7
2019-03-27T06:34:55.081Z,26.8
2019-03-27T06:35:30.502Z,26.8
2019-03-27T06:36:20.857Z,26.8
2019-03-27T06:37:10.706Z,26.8
2019-03-27T06:38:01.482Z,26.8
2019-03-27T06:38:50.674Z,26.8
2019-03-27T06:39:41.569Z,26.8
2019-03-27T06:40:31.186Z,26.8
2019-03-27T06:41:21.616Z,26.7
2019-03-27T06:42:10.203Z,26.7
2019-03-27T06:43:01.651Z,26.6
2019-03-27T06:43:51.109Z,26.6
2019-03-27T06:44:40.964Z,26.6
2019-03-27T06:45:31.987Z,26.6
2019-03-27T06:46:20.463Z,26.6
2019-03-27T06:47:12.459Z,26.5
2019-03-27T06:48:01.476Z,26.5
2019-03-27T06:48:51.529Z,26.4
2019-03-27T06:49:42.249Z,26.4
2019-03-27T06:50:32.205Z,26.4
2019-03-27T06:51:39.158Z,26.4
2019-03-27T06:52:11.700Z,26.4
2019-03-27T06:53:02.484Z,26.3
2019-03-27T06:53:50.993Z,26.3
2019-03-27T06:54:42.429Z,26.3
2019-03-27T06:55:32.501Z,26.3
2019-03-27T06:56:21.515Z,26.2
2019-03-27T06:57:12.486Z,26.2
2019-03-27T06:58:03.190Z,26.1
2019-03-27T06:59:05.286Z,26.1
2019-03-27T06:59:42.453Z,26.1
2019-03-27T07:00:32.269Z,26.1
2019-03-27T07:01:23.418Z,26
2019-03-27T07:02:12.828Z,26
2019-03-27T07:03:02.289Z,25.9
2019-03-27T07:06:20.395Z,25.8
2019-03-27T07:07:07.202Z,25.3
2019-03-27T07:07:22.044Z,25.4
2019-03-27T07:08:11.344Z,25.4
2019-03-27T07:09:02.425Z,25.6
2019-03-27T07:09:52.758Z,25.8
2019-03-27T07:10:40.787Z,26.2
2019-03-27T07:11:30.847Z,26.5
2019-03-27T07:12:31.912Z,26.3
2019-03-27T07:13:11.787Z,26.1
2019-03-27T07:14:02.120Z,26.1
2019-03-27T07:14:51.360Z,26.1
2019-03-27T07:15:45.275Z,26.1
2019-03-27T07:16:31.102Z,26.3
2019-03-27T07:17:22.257Z,26.3
2019-03-27T07:18:14.984Z,26.4
2019-03-27T07:19:03.890Z,26.4
2019-03-27T07:20:08.044Z,26.4
2019-03-27T07:20:56.847Z,26.5
2019-03-27T07:21:33.357Z,26.5
2019-03-27T07:22:23.312Z,26.5
2019-03-27T07:23:13.812Z,26.5
2019-03-27T07:24:02.997Z,26.5
2019-03-27T07:24:52.800Z,26.4
2019-03-27T07:25:42.339Z,26.4
2019-03-27T07:26:32.875Z,26.4
2019-03-27T07:27:22.707Z,26.4
2019-03-27T07:28:12.587Z,26.3
2019-03-27T07:29:02.336Z,26.3
2019-03-27T07:29:52.871Z,26.3
2019-03-27T07:30:43.476Z,26.3
2019-03-27T07:31:33.839Z,26.2
2019-03-27T07:32:23.610Z,26.1
2019-03-27T07:33:13.694Z,26.1
2019-03-27T07:34:18.544Z,26.1
2019-03-27T07:34:53.296Z,26
2019-03-27T07:35:43.834Z,26
2019-03-27T07:36:33.973Z,25.9
2019-03-27T07:37:22.936Z,25.9
2019-03-27T07:38:13.707Z,25.9
2019-03-27T07:39:19.011Z,25.8
2019-03-27T07:39:53.213Z,25.8
2019-03-27T07:40:44.749Z,25.8
2019-03-27T07:41:33.628Z,25.7
2019-03-27T07:42:24.578Z,25.7
2019-03-27T07:43:14.381Z,25.6
2019-03-27T07:44:04.099Z,25.6
2019-03-27T07:44:54.793Z,25.5
2019-03-27T07:45:44.518Z,25.5
2019-03-27T07:46:33.851Z,25.4
2019-03-27T07:47:23.868Z,25.4
2019-03-27T07:48:14.518Z,25.3
2019-03-27T07:49:04.985Z,24.9
2019-03-27T07:49:54.648Z,25.1
2019-03-27T07:50:44.843Z,25.3
2019-03-27T07:51:34.727Z,25.5
2019-03-27T07:52:24.578Z,25.9
2019-03-27T07:53:15.061Z,25.8
2019-03-27T07:54:04.676Z,25.3
2019-03-27T07:54:55.040Z,25
2019-03-27T07:55:45.345Z,24.9
2019-03-27T07:56:35.928Z,24.9
2019-03-27T07:57:25.669Z,24.9
2019-03-27T07:58:15.740Z,24.9
2019-03-27T07:59:08.655Z,24.9
2019-03-27T07:59:54.760Z,25
2019-03-27T08:00:46.286Z,25
2019-03-27T08:01:35.962Z,25
2019-03-27T08:02:26.083Z,25.1
2019-03-27T08:03:15.886Z,25.1
2019-03-27T08:04:05.681Z,25.1
2019-03-27T08:04:54.556Z,25.1
2019-03-27T08:05:45.973Z,25.1
2019-03-27T08:06:36.068Z,25.1
2019-03-27T08:07:37.788Z,25.1
2019-03-27T08:08:16.203Z,25.1
2019-03-27T08:09:05.963Z,25
2019-03-27T08:09:56.438Z,25
2019-03-27T08:10:45.243Z,25
2019-03-27T08:11:40.785Z,25
2019-03-27T08:12:26.782Z,24.9
2019-03-27T08:13:15.856Z,24.9
2019-03-27T08:14:06.080Z,24.9
2019-03-27T08:14:56.503Z,24.9
2019-03-27T08:15:50.380Z,24.9
2019-03-27T08:16:36.043Z,24.9
2019-03-27T08:17:26.065Z,24.9
2019-03-27T08:18:15.358Z,24.8
2019-03-27T08:19:17.912Z,24.8
2019-03-27T08:19:56.260Z,24.8
2019-03-27T08:20:46.904Z,24.8
2019-03-27T08:21:41.291Z,24.8
2019-03-27T08:22:26.621Z,24.7
2019-03-27T08:23:16.965Z,24.7
2019-03-27T08:24:07.902Z,24.6
2019-03-27T08:24:56.055Z,24.4
2019-03-27T08:25:47.194Z,24.8
2019-03-27T08:26:36.744Z,25
2019-03-27T08:27:27.895Z,25.3
2019-03-27T08:28:17.709Z,26.3
2019-03-27T08:29:07.800Z,26.2
2019-03-27T08:29:57.060Z,25.9
2019-03-27T08:30:47.877Z,25.8
2019-03-27T08:31:37.570Z,25.7
2019-03-27T08:32:28.714Z,25.8
2019-03-27T08:33:18.231Z,25.9
2019-03-27T08:34:08.339Z,26
2019-03-27T08:34:57.547Z,26.1
2019-03-27T08:35:47.849Z,26.2
2019-03-27T08:36:38.624Z,26.3
2019-03-27T08:37:27.757Z,26.3
2019-03-27T08:38:21.562Z,26.4
2019-03-27T08:39:08.381Z,26.3
2019-03-27T08:39:58.254Z,26.4
2019-03-27T08:40:48.621Z,26.4
2019-03-27T08:41:38.578Z,26.3
2019-03-27T08:42:28.371Z,26.4
2019-03-27T08:43:34.881Z,26.3
2019-03-27T08:44:08.571Z,26.3
2019-03-27T08:44:58.921Z,26.3
2019-03-27T08:45:49.432Z,26.3
2019-03-27T08:46:39.090Z,26.2
2019-03-27T08:47:29.016Z,26.2
2019-03-27T08:48:17.491Z,26.1
2019-03-27T08:49:24.610Z,26.1
2019-03-27T08:50:13.637Z,26.1
2019-03-27T08:50:49.577Z,26
2019-03-27T08:51:39.574Z,25.9
2019-03-27T08:52:28.153Z,25.9
2019-03-27T08:53:19.019Z,25.9
2019-03-27T08:54:09.367Z,25.9
2019-03-27T08:54:59.625Z,25.8
2019-03-27T08:55:50.149Z,25.8
2019-03-27T08:56:39.692Z,25.7
2019-03-27T08:57:29.191Z,25.7
2019-03-27T08:58:20.397Z,25.6
2019-03-27T08:59:09.326Z,25.6
2019-03-27T08:59:59.664Z,25.5
2019-03-27T09:00:49.525Z,25.5
2019-03-27T09:01:38.596Z,25.4
2019-03-27T09:02:29.658Z,25.4
2019-03-27T09:03:19.744Z,25.4
2019-03-27T09:04:09.449Z,25.3
2019-03-27T09:05:00.109Z,25.3
2019-03-27T09:05:49.596Z,24.9
2019-03-27T09:06:43.968Z,24.6
2019-03-27T09:07:29.730Z,24.8
2019-03-27T09:08:20.113Z,24.9
2019-03-27T09:09:24.766Z,25.3
2019-03-27T09:09:59.926Z,26.6
2019-03-27T09:10:50.281Z,26.3
2019-03-27T09:11:39.229Z,25.9
2019-03-27T09:12:30.631Z,25.7
2019-03-27T09:13:18.998Z,25.6
2019-03-27T09:14:11.241Z,25.8
2019-03-27T09:15:01.048Z,25.8
2019-03-27T09:15:50.878Z,25.9
2019-03-27T09:16:40.661Z,26.1
2019-03-27T09:17:30.955Z,26.2
2019-03-27T09:18:24.963Z,26.2
2019-03-27T09:19:11.845Z,26.3
2019-03-27T09:20:01.900Z,26.3
2019-03-27T09:20:51.472Z,26.3
2019-03-27T09:21:41.268Z,26.4
2019-03-27T09:22:31.353Z,26.4
2019-03-27T09:23:22.380Z,26.4
2019-03-27T09:24:11.975Z,26.4
2019-03-27T09:25:00.988Z,26.3
2019-03-27T09:25:51.510Z,26.3
2019-03-27T09:26:42.340Z,26.3
2019-03-27T09:27:46.783Z,26.3
2019-03-27T09:28:22.287Z,26.3
2019-03-27T09:29:15.367Z,26.2
2019-03-27T09:30:01.768Z,26.2
2019-03-27T09:30:52.829Z,26.1
2019-03-27T09:31:55.545Z,26.1
2019-03-27T09:32:46.968Z,26.1
2019-03-27T09:33:22.392Z,26
2019-03-27T09:34:11.849Z,25.9
2019-03-27T09:35:02.183Z,25.9
2019-03-27T09:35:54.033Z,25.9
2019-03-27T09:36:43.299Z,25.8
2019-03-27T09:37:32.735Z,25.8
2019-03-27T09:38:23.460Z,25.8
2019-03-27T09:39:12.913Z,25.7
2019-03-27T09:40:03.307Z,25.7
2019-03-27T09:40:52.292Z,25.6
2019-03-27T09:41:42.474Z,25.6
2019-03-27T09:42:32.807Z,25.6
2019-03-27T09:43:22.285Z,25.5
2019-03-27T09:44:13.218Z,25.4
2019-03-27T09:45:03.781Z,25.4
2019-03-27T09:45:53.239Z,25.4
2019-03-27T09:46:42.529Z,25.4
2019-03-27T09:47:36.499Z,25.1
2019-03-27T09:48:23.479Z,24.6
2019-03-27T09:49:13.999Z,24.8
2019-03-27T09:50:03.229Z,24.8
2019-03-27T09:50:53.586Z,25.1
2019-03-27T09:51:43.439Z,26.3
2019-03-27T09:52:33.766Z,26.3
2019-03-27T09:53:24.013Z,25.9
2019-03-27T09:54:28.516Z,25.6
2019-03-27T09:55:03.786Z,25.6
2019-03-27T09:55:53.106Z,25.6
2019-03-27T09:56:43.427Z,25.8
2019-03-27T09:57:33.996Z,25.9
2019-03-27T09:58:24.678Z,26
2019-03-27T09:59:16.097Z,26.1
2019-03-27T10:00:03.843Z,26.2
2019-03-27T10:00:55.324Z,26.3
2019-03-27T10:01:43.911Z,26.3
2019-03-27T10:02:34.703Z,26.3
2019-03-27T10:03:24.275Z,26.4
2019-03-27T10:04:14.240Z,26.3
2019-03-27T10:06:29.265Z,26.3
2019-03-27T10:07:33.060Z,26.3
2019-03-27T10:08:08.792Z,26.3
2019-03-27T10:08:58.630Z,26.3
2019-03-27T10:09:52.704Z,26.3
2019-03-27T10:10:39.295Z,26.2
2019-03-27T10:11:47.552Z,26.2
2019-03-27T10:12:18.803Z,26.1
2019-03-27T10:13:08.860Z,26.1
2019-03-27T10:13:58.627Z,26.1
2019-03-27T10:14:53.072Z,26.1
2019-03-27T10:15:38.794Z,26
2019-03-27T10:16:29.542Z,25.9
2019-03-27T10:17:21.380Z,25.9
2019-03-27T10:18:08.734Z,25.8
2019-03-27T10:18:59.894Z,25.8
2019-03-27T10:20:02.399Z,25.8
2019-03-27T10:20:40.255Z,25.7
2019-03-27T10:21:28.927Z,25.7
2019-03-27T10:22:19.107Z,25.6
2019-03-27T10:23:10.567Z,25.6
2019-03-27T10:23:59.937Z,25.6
2019-03-27T10:24:48.339Z,25.5
2019-03-27T10:25:39.544Z,25.4
2019-03-27T10:26:29.999Z,25.4
2019-03-27T10:27:19.749Z,25.4
2019-03-27T10:28:09.332Z,25.3
2019-03-27T10:29:00.564Z,25.3
2019-03-27T10:29:50.706Z,25.1
2019-03-27T10:30:39.329Z,24.6
2019-03-27T10:31:30.752Z,24.6
2019-03-27T10:32:20.589Z,24.7
2019-03-27T10:33:10.487Z,25.1
2019-03-27T10:34:01.069Z,25.6
2019-03-27T10:34:49.683Z,24.8
2019-03-27T10:35:39.538Z,24.3
2019-03-27T10:36:30.883Z,24
2019-03-27T10:37:20.653Z,24.1
2019-03-27T10:38:09.599Z,24.2
2019-03-27T10:38:59.724Z,24.3
2019-03-27T10:39:51.173Z,24.5
2019-03-27T10:40:39.958Z,24.7
2019-03-27T10:41:30.124Z,24.8
2019-03-27T10:42:21.107Z,24.9
2019-03-27T10:43:10.087Z,25.1
2019-03-27T10:44:00.885Z,25.2
2019-03-27T10:44:50.518Z,25.3
2019-03-27T10:45:40.645Z,25.3
2019-03-27T10:46:30.090Z,25.4
2019-03-27T10:47:20.618Z,25.4
2019-03-27T10:48:11.260Z,25.4
2019-03-27T10:49:03.333Z,25.5
2019-03-27T10:49:51.953Z,25.5
2019-03-27T10:50:41.465Z,25.5
2019-03-27T10:51:31.278Z,25.5
2019-03-27T10:52:21.670Z,25.5
2019-03-27T10:53:11.508Z,25.5
2019-03-27T10:54:01.088Z,25.5
2019-03-27T10:54:52.279Z,25.4
2019-03-27T10:55:44.572Z,25.4
2019-03-27T10:56:32.017Z,25.4
2019-03-27T10:57:22.980Z,25.4
2019-03-27T10:58:12.941Z,25.4
2019-03-27T10:59:02.987Z,25.4
2019-03-27T10:59:52.965Z,25.4
2019-03-27T11:00:42.073Z,25.3
2019-03-27T11:01:33.222Z,25.3
2019-03-27T11:02:23.300Z,25.3
2019-03-27T11:03:12.492Z,24.7
2019-03-27T11:04:03.502Z,24.6
2019-03-27T11:04:52.942Z,24.6
2019-03-27T11:05:43.465Z,25
2019-03-27T11:06:33.340Z,26.2
2019-03-27T11:07:23.447Z,26.4
2019-03-27T11:08:17.176Z,25.9
2019-03-27T11:09:03.529Z,25.6
2019-03-27T11:09:52.809Z,25.5
2019-03-27T11:10:42.786Z,25.5
2019-03-27T11:11:32.027Z,25.7
2019-03-27T11:12:22.912Z,25.8
2019-03-27T11:13:13.009Z,25.9
2019-03-27T11:14:03.228Z,26.1
2019-03-27T11:14:52.782Z,26.2
2019-03-27T11:15:43.670Z,26.3
2019-03-27T11:16:33.219Z,26.3
2019-03-27T11:17:22.707Z,26.4
2019-03-27T11:18:13.830Z,26.4
2019-03-27T11:19:03.613Z,26.4
2019-03-27T11:19:53.943Z,26.4
2019-03-27T11:20:43.231Z,26.4
2019-03-27T11:21:34.629Z,26.4
2019-03-27T11:22:24.378Z,26.4
2019-03-27T11:23:14.454Z,26.4
2019-03-27T11:24:03.786Z,26.4
2019-03-27T11:24:54.663Z,26.3
2019-03-27T11:25:44.436Z,26.3
2019-03-27T11:26:34.261Z,26.3
2019-03-27T11:27:23.774Z,26.3
2019-03-27T11:28:13.706Z,26.2
2019-03-27T11:29:04.465Z,26.2
2019-03-27T11:29:54.058Z,26.1
2019-03-27T11:30:44.296Z,26.1
2019-03-27T11:31:34.623Z,26
2019-03-27T11:32:23.920Z,26
2019-03-27T11:33:14.828Z,25.9
2019-03-27T11:34:04.235Z,25.9
2019-03-27T11:34:54.790Z,25.9